createdAt,value
2019-05-06T00:01:24.075Z,4.33
2019-05-06T00:03:54.194Z,4.90
2019-05-06T00:06:23.658Z,5.30
2019-05-06T00:08:54.372Z,4.53
2019-05-06T00:11:23.879Z,5.43
2019-05-06T00:13:54.264Z,5.90
2019-05-06T00:16:23.804Z,4.73
2019-05-06T00:18:54.129Z,4.50
2019-05-06T00:21:24.457Z,4.50
2019-05-06T00:23:54.559Z,3.87
2019-05-06T00:26:41.568Z,6.23
2019-05-06T00:29:13.869Z,4.90
2019-05-06T00:31:43.894Z,4.40
2019-05-06T00:34:13.709Z,4.73
2019-05-06T00:36:43.670Z,5.07
2019-05-06T00:39:26.278Z,4.80
2019-05-06T00:42:03.789Z,5.03
2019-05-06T00:44:31.942Z,5.40
2019-05-06T00:47:00.353Z,5.07
2019-05-06T00:49:28.750Z,4.70
2019-05-06T00:51:57.160Z,6.30
2019-05-06T00:54:27.210Z,4.80
2019-05-06T00:56:55.598Z,5.23
2019-05-06T00:59:23.982Z,5.70
2019-05-06T01:01:53.897Z,5.73
2019-05-06T01:04:24.381Z,6.70
2019-05-06T01:06:54.488Z,6.00
2019-05-06T01:09:23.499Z,5.30
2019-05-06T01:11:54.156Z,5.13
2019-05-06T01:14:24.342Z,5.70
2019-05-06T01:16:54.588Z,4.50
2019-05-06T01:19:23.551Z,4.60
2019-05-06T01:21:53.888Z,5.57
2019-05-06T01:24:23.817Z,5.33
2019-05-06T01:26:53.678Z,5.33
2019-05-06T01:29:24.048Z,6.30
2019-05-06T01:31:54.241Z,6.00
2019-05-06T01:34:24.416Z,6.40
2019-05-06T01:36:54.547Z,6.00
2019-05-06T01:39:30.363Z,6.97
2019-05-06T01:42:00.416Z,5.90
2019-05-06T01:44:28.810Z,6.37
2019-05-06T01:46:57.194Z,5.60
2019-05-06T01:49:25.594Z,6.00
2019-05-06T01:51:54.747Z,5.90
2019-05-06T01:54:24.864Z,5.80
2019-05-06T01:56:53.958Z,6.30
2019-05-06T01:59:24.460Z,5.27
2019-05-06T02:01:58.050Z,6.17
2019-05-06T02:04:24.454Z,6.03
2019-05-06T02:06:54.509Z,6.80
2019-05-06T02:09:24.649Z,6.80
2019-05-06T02:11:53.618Z,6.43
2019-05-06T02:14:24.485Z,5.93
2019-05-06T02:16:54.368Z,6.23
2019-05-06T02:19:24.146Z,6.80
2019-05-06T02:21:54.467Z,6.73
2019-05-06T02:24:27.496Z,6.40
2019-05-06T02:26:56.130Z,6.67
2019-05-06T02:29:26.627Z,7.67
2019-05-06T02:32:24.408Z,7.57
2019-05-06T02:34:45.868Z,6.80
2019-05-06T02:37:31.246Z,6.23
2019-05-06T02:39:59.665Z,6.40
2019-05-06T02:42:28.076Z,7.40
2019-05-06T02:44:56.544Z,6.60
2019-05-06T02:47:29.257Z,6.87
2019-05-06T02:50:04.462Z,7.00
2019-05-06T02:52:33.042Z,7.40
2019-05-06T02:55:01.453Z,6.63
2019-05-06T02:57:33.243Z,6.57
2019-05-06T03:00:00.003Z,6.57
2019-05-06T03:02:42.173Z,6.10
2019-05-06T03:04:58.513Z,6.80
2019-05-06T03:07:27.680Z,6.30
2019-05-06T03:09:56.071Z,6.83
2019-05-06T03:12:24.492Z,6.13
2019-05-06T03:14:53.426Z,6.70
2019-05-06T03:17:23.476Z,6.73
2019-05-06T03:19:53.818Z,7.27
2019-05-06T03:22:27.704Z,24.63
2019-05-06T03:24:55.671Z,7.03
2019-05-06T03:27:24.084Z,7.37
2019-05-06T03:29:53.688Z,7.00
2019-05-06T03:32:29.910Z,6.87
2019-05-06T03:35:15.751Z,7.00
2019-05-06T03:37:23.902Z,6.57
2019-05-06T03:39:53.088Z,6.30
2019-05-06T03:42:23.142Z,7.10
2019-05-06T03:44:53.612Z,7.40
2019-05-06T03:47:43.299Z,5.93
2019-05-06T03:50:13.261Z,7.47
2019-05-06T03:52:44.129Z,6.17
2019-05-06T03:55:13.859Z,6.60
2019-05-06T03:57:43.056Z,6.60
2019-05-06T04:00:15.994Z,6.53
2019-05-06T04:02:44.039Z,6.20
2019-05-06T04:05:13.454Z,6.33
2019-05-06T04:07:45.508Z,6.97
2019-05-06T04:10:13.644Z,5.80
2019-05-06T04:12:44.279Z,5.50
2019-05-06T04:15:14.128Z,5.97
2019-05-06T04:17:53.472Z,7.00
2019-05-06T04:20:28.639Z,7.70
2019-05-06T04:23:15.716Z,6.87
2019-05-06T04:26:03.552Z,6.53
2019-05-06T04:28:36.323Z,5.63
2019-05-06T04:31:05.655Z,6.23
2019-05-06T04:33:34.410Z,7.00
2019-05-06T04:36:03.839Z,6.13
2019-05-06T04:38:33.670Z,6.33
2019-05-06T04:41:03.071Z,6.53
2019-05-06T04:43:33.637Z,6.37
2019-05-06T04:46:03.100Z,5.80
2019-05-06T04:48:32.999Z,7.00
2019-05-06T04:51:03.400Z,6.80
2019-05-06T04:53:33.712Z,7.13
2019-05-06T04:56:03.795Z,6.90
2019-05-06T04:58:33.542Z,7.10
2019-05-06T05:01:04.168Z,7.23
2019-05-06T05:03:33.577Z,6.67
2019-05-06T05:06:05.621Z,6.70
2019-05-06T05:08:38.957Z,7.30
2019-05-06T05:11:12.785Z,6.80
2019-05-06T05:13:43.358Z,6.10
2019-05-06T05:16:33.157Z,7.40
2019-05-06T05:19:03.575Z,6.70
2019-05-06T05:21:32.321Z,7.03
2019-05-06T05:24:02.034Z,7.57
2019-05-06T05:26:32.284Z,6.60
2019-05-06T05:29:02.755Z,6.87
2019-05-06T05:31:33.221Z,8.27
2019-05-06T05:34:02.177Z,7.77
2019-05-06T05:36:32.772Z,8.90
2019-05-06T05:39:03.316Z,7.07
2019-05-06T05:41:33.133Z,6.63
2019-05-06T05:44:03.956Z,6.50
2019-05-06T05:46:33.058Z,7.93
2019-05-06T05:49:08.714Z,8.13
2019-05-06T05:51:37.112Z,7.67
2019-05-06T05:54:05.589Z,7.70
2019-05-06T05:56:34.295Z,8.30
2019-05-06T05:59:03.234Z,6.57
2019-05-06T06:01:32.643Z,6.83
2019-05-06T06:04:03.012Z,7.47
2019-05-06T06:06:33.161Z,8.53
2019-05-06T06:09:03.115Z,7.00
2019-05-06T06:11:36.467Z,6.90
2019-05-06T06:14:09.180Z,7.17
2019-05-06T06:16:39.703Z,8.13
2019-05-06T06:19:18.630Z,8.83
2019-05-06T06:21:54.735Z,7.70
2019-05-06T06:24:27.378Z,8.07
2019-05-06T06:26:55.884Z,7.80
2019-05-06T06:29:24.276Z,10.03
2019-05-06T06:31:54.313Z,7.90
2019-05-06T06:34:27.135Z,6.87
2019-05-06T06:37:02.464Z,7.93
2019-05-06T06:39:34.779Z,9.53
2019-05-06T06:42:04.246Z,8.83
2019-05-06T06:44:34.267Z,7.50
2019-05-06T06:47:03.110Z,8.20
2019-05-06T06:49:32.858Z,7.97
2019-05-06T06:52:02.738Z,8.13
2019-05-06T06:54:32.386Z,8.90
2019-05-06T06:57:09.216Z,7.80
2019-05-06T06:59:54.273Z,8.30
2019-05-06T07:02:32.670Z,8.70
2019-05-06T07:05:02.486Z,9.47
2019-05-06T07:07:41.291Z,8.30
2019-05-06T07:10:04.408Z,8.97
2019-05-06T07:12:33.725Z,9.33
2019-05-06T07:15:02.536Z,8.80
2019-05-06T07:17:32.777Z,9.20
2019-05-06T07:20:13.241Z,9.77
2019-05-06T07:22:42.367Z,9.50
2019-05-06T07:25:12.814Z,9.90
2019-05-06T07:27:42.028Z,8.97
2019-05-06T07:30:12.434Z,11.03
2019-05-06T07:32:42.424Z,10.07
2019-05-06T07:35:12.951Z,10.20
2019-05-06T07:37:42.277Z,9.57
2019-05-06T07:40:12.417Z,12.37
2019-05-06T07:42:43.223Z,11.53
2019-05-06T07:45:19.215Z,12.10
2019-05-06T07:47:49.259Z,12.63
2019-05-06T07:50:17.647Z,11.90
2019-05-06T07:53:03.798Z,11.37
2019-05-06T07:55:32.790Z,11.47
2019-05-06T07:58:02.913Z,11.97
2019-05-06T08:00:32.706Z,12.30
2019-05-06T08:03:02.565Z,11.70
2019-05-06T08:05:32.393Z,13.57
2019-05-06T08:08:03.583Z,12.37
2019-05-06T08:10:33.241Z,12.10
2019-05-06T08:13:02.764Z,12.93
2019-05-06T08:15:32.593Z,23.40
2019-05-06T08:18:03.350Z,14.07
2019-05-06T08:20:37.734Z,13.93
2019-05-06T08:23:12.659Z,13.37
2019-05-06T08:25:45.670Z,12.47
2019-05-06T08:28:14.149Z,12.03
2019-05-06T08:30:43.241Z,12.70
2019-05-06T08:33:12.835Z,13.77
2019-05-06T08:35:42.558Z,12.97
2019-05-06T08:38:12.249Z,14.40
2019-05-06T08:40:42.869Z,13.23
2019-05-06T08:43:13.082Z,13.73
2019-05-06T08:45:42.083Z,13.90
2019-05-06T08:48:12.836Z,15.30
2019-05-06T08:50:52.858Z,15.93
2019-05-06T08:53:35.453Z,13.73
2019-05-06T08:56:05.487Z,13.87
2019-05-06T08:58:46.262Z,16.07
2019-05-06T09:01:17.726Z,14.33
2019-05-06T09:03:46.148Z,15.00
2019-05-06T09:06:26.569Z,13.83
2019-05-06T09:08:44.682Z,15.03
2019-05-06T09:11:13.080Z,13.83
2019-05-06T09:13:42.854Z,17.77
2019-05-06T09:16:12.970Z,15.17
2019-05-06T09:18:42.498Z,14.00
2019-05-06T09:21:12.318Z,14.73
2019-05-06T09:23:42.349Z,13.13
2019-05-06T09:26:13.141Z,14.17
2019-05-06T09:28:49.316Z,13.83
2019-05-06T09:31:25.405Z,11.50
2019-05-06T09:33:55.495Z,11.87
2019-05-06T09:36:39.550Z,11.50
2019-05-06T09:38:54.043Z,11.50
2019-05-06T09:41:23.115Z,11.90
2019-05-06T09:43:52.789Z,12.40
2019-05-06T09:46:23.087Z,11.90
2019-05-06T09:49:03.329Z,10.80
2019-05-06T09:51:32.511Z,10.50
2019-05-06T09:54:08.432Z,8.90
2019-05-06T09:56:53.146Z,9.03
2019-05-06T09:59:22.006Z,9.90
2019-05-06T10:01:52.808Z,12.00
2019-05-06T10:04:20.795Z,15.57
2019-05-06T10:06:57.229Z,15.30
2019-05-06T10:09:19.402Z,11.50
2019-05-06T10:11:47.813Z,9.40
2019-05-06T10:14:16.310Z,11.53
2019-05-06T10:16:44.696Z,13.90
2019-05-06T10:19:13.383Z,13.00
2019-05-06T10:21:42.751Z,14.30
2019-05-06T10:24:11.407Z,13.63
2019-05-06T10:26:43.208Z,16.87
2019-05-06T10:29:25.480Z,11.63
2019-05-06T10:32:07.548Z,9.73
2019-05-06T10:34:35.957Z,10.47
2019-05-06T10:37:19.235Z,12.37
2019-05-06T10:39:52.224Z,8.60
2019-05-06T10:42:23.730Z,8.73
2019-05-06T10:45:07.242Z,8.43
2019-05-06T10:47:35.647Z,7.80
2019-05-06T10:50:05.005Z,14.53
2019-05-06T10:52:35.043Z,7.33
2019-05-06T10:55:04.197Z,11.87
2019-05-06T10:57:34.239Z,12.90
2019-05-06T11:00:02.795Z,12.73
2019-05-06T11:02:43.042Z,16.67
2019-05-06T11:05:12.531Z,16.40
2019-05-06T11:07:42.945Z,13.30
2019-05-06T11:10:23.379Z,12.80
2019-05-06T11:12:43.100Z,13.27
2019-05-06T11:15:12.368Z,10.53
2019-05-06T11:17:43.391Z,10.97
2019-05-06T11:20:14.026Z,11.53
2019-05-06T11:22:43.577Z,10.83
2019-05-06T11:25:12.407Z,11.23
2019-05-06T11:27:42.589Z,10.70
2019-05-06T11:30:21.884Z,11.07
2019-05-06T11:32:54.804Z,9.83
2019-05-06T11:35:24.980Z,10.00
2019-05-06T11:38:00.987Z,12.03
2019-05-06T11:40:29.394Z,11.70
2019-05-06T11:42:57.805Z,10.27
2019-05-06T11:45:26.207Z,10.40
2019-05-06T11:47:55.878Z,9.57
2019-05-06T11:50:24.517Z,13.10
2019-05-06T11:52:55.825Z,13.03
2019-05-06T11:55:31.732Z,10.80
2019-05-06T11:57:53.209Z,10.60
2019-05-06T12:00:23.968Z,10.93
2019-05-06T12:02:53.314Z,9.90
2019-05-06T12:05:22.371Z,11.37
2019-05-06T12:08:01.749Z,10.50
2019-05-06T12:10:22.496Z,9.33
2019-05-06T12:12:53.206Z,9.73
2019-05-06T12:15:22.986Z,8.90
2019-05-06T12:17:53.310Z,9.70
2019-05-06T12:20:22.239Z,9.47
2019-05-06T12:22:52.731Z,8.83
2019-05-06T12:25:23.542Z,12.63
2019-05-06T12:27:52.589Z,11.33
2019-05-06T12:30:23.346Z,9.73
2019-05-06T12:32:56.184Z,9.40
2019-05-06T12:35:24.583Z,8.63
2019-05-06T12:37:54.717Z,8.20
2019-05-06T12:40:23.171Z,8.17
2019-05-06T12:42:55.736Z,8.80
2019-05-06T12:45:25.843Z,8.80
2019-05-06T12:48:04.425Z,7.60
2019-05-06T12:50:33.285Z,7.53
2019-05-06T12:53:01.849Z,6.60
2019-05-06T12:55:30.379Z,6.80
2019-05-06T12:57:58.778Z,8.40
2019-05-06T13:00:28.878Z,7.87
2019-05-06T13:02:57.305Z,25.20
2019-05-06T13:05:25.698Z,7.87
2019-05-06T13:07:54.109Z,8.50
2019-05-06T13:10:23.457Z,9.50
2019-05-06T13:12:56.425Z,10.73
2019-05-06T13:15:25.790Z,12.63
2019-05-06T13:17:54.279Z,10.63
2019-05-06T13:20:23.094Z,11.77
2019-05-06T13:23:15.881Z,8.17
2019-05-06T13:25:42.205Z,9.97
2019-05-06T13:28:12.778Z,8.60
2019-05-06T13:30:43.176Z,9.20
2019-05-06T13:33:15.513Z,7.87
2019-05-06T13:35:44.203Z,6.90
2019-05-06T13:38:12.609Z,7.30
2019-05-06T13:40:53.824Z,7.70
2019-05-06T13:43:13.385Z,8.20
2019-05-06T13:45:43.698Z,6.97
2019-05-06T13:48:13.742Z,7.07
2019-05-06T13:50:43.790Z,6.87
2019-05-06T13:53:14.625Z,7.47
2019-05-06T13:55:42.900Z,18.37
2019-05-06T13:58:12.534Z,7.90
2019-05-06T14:00:42.591Z,8.10
2019-05-06T14:03:11.199Z,9.33
2019-05-06T14:05:39.604Z,9.77
2019-05-06T14:08:08.025Z,8.80
2019-05-06T14:10:36.431Z,10.87
2019-05-06T14:13:04.834Z,8.37
2019-05-06T14:15:33.240Z,23.53
2019-05-06T14:18:02.629Z,17.03
2019-05-06T14:20:33.384Z,13.10
2019-05-06T14:23:02.239Z,7.87
2019-05-06T14:25:38.386Z,7.27
2019-05-06T14:28:20.350Z,6.90
2019-05-06T14:30:53.256Z,7.17
2019-05-06T14:33:23.604Z,11.00
2019-05-06T14:35:52.711Z,7.90
2019-05-06T14:38:24.690Z,7.43
2019-05-06T14:41:13.145Z,9.10
2019-05-06T14:43:42.904Z,7.07
2019-05-06T14:46:11.454Z,7.20
2019-05-06T14:48:39.878Z,8.70
2019-05-06T14:51:08.269Z,8.03
2019-05-06T14:53:36.679Z,6.83
2019-05-06T14:56:06.783Z,8.43
2019-05-06T14:58:35.187Z,6.97
2019-05-06T15:01:03.806Z,8.40
2019-05-06T15:03:32.689Z,7.97
2019-05-06T15:06:02.589Z,8.13
2019-05-06T15:08:32.213Z,9.77
2019-05-06T15:11:02.959Z,7.53
2019-05-06T15:13:32.179Z,8.60
2019-05-06T15:16:03.535Z,7.30
2019-05-06T15:18:32.095Z,8.90
2019-05-06T15:21:29.011Z,10.90
2019-05-06T15:23:30.962Z,6.50
2019-05-06T15:25:59.385Z,7.47
2019-05-06T15:28:27.797Z,7.30
2019-05-06T15:31:03.571Z,10.30
2019-05-06T15:33:36.570Z,7.00
2019-05-06T15:36:09.759Z,8.23
2019-05-06T15:38:38.142Z,7.93
2019-05-06T15:41:06.542Z,7.07
2019-05-06T15:43:34.971Z,7.17
2019-05-06T15:46:03.438Z,6.87
2019-05-06T15:48:33.064Z,6.60
2019-05-06T15:51:02.178Z,6.27
2019-05-06T15:53:32.676Z,9.53
2019-05-06T15:56:00.833Z,9.93
2019-05-06T15:58:29.306Z,6.90
2019-05-06T16:00:57.728Z,6.43
2019-05-06T16:03:26.145Z,6.20
2019-05-06T16:05:55.165Z,6.70
2019-05-06T16:08:24.540Z,6.70
2019-05-06T16:10:58.219Z,6.80
2019-05-06T16:13:23.248Z,6.67
2019-05-06T16:15:53.216Z,7.30
2019-05-06T16:18:23.402Z,7.63
2019-05-06T16:20:52.042Z,6.63
2019-05-06T16:23:32.757Z,6.40
2019-05-06T16:26:02.995Z,6.77
2019-05-06T16:28:31.564Z,7.17
2019-05-06T16:31:02.304Z,7.00
2019-05-06T16:33:32.423Z,5.77
2019-05-06T16:36:00.206Z,7.00
2019-05-06T16:38:28.621Z,7.00
2019-05-06T16:41:09.415Z,7.50
2019-05-06T16:43:27.332Z,6.23
2019-05-06T16:45:55.731Z,7.10
2019-05-06T16:48:24.153Z,7.60
2019-05-06T16:50:52.618Z,8.60
2019-05-06T16:53:22.909Z,9.27
2019-05-06T16:55:58.779Z,7.63
2019-05-06T16:58:37.859Z,7.80
2019-05-06T17:01:06.677Z,6.10
2019-05-06T17:03:53.137Z,13.20
2019-05-06T17:06:23.305Z,9.13
2019-05-06T17:08:52.814Z,8.13
2019-05-06T17:11:27.973Z,6.53
2019-05-06T17:13:52.293Z,7.10
2019-05-06T17:16:22.112Z,6.07
2019-05-06T17:18:55.718Z,6.10
2019-05-06T17:21:22.252Z,7.33
2019-05-06T17:23:52.253Z,6.10
2019-05-06T17:26:22.529Z,8.00
2019-05-06T17:28:58.419Z,6.30
2019-05-06T17:31:28.456Z,7.60
2019-05-06T17:33:58.508Z,5.80
2019-05-06T17:36:28.638Z,10.23
2019-05-06T17:38:57.306Z,6.20
2019-05-06T17:41:30.668Z,7.10
2019-05-06T17:43:55.838Z,7.90
2019-05-06T17:46:28.590Z,7.27
2019-05-06T17:48:58.648Z,7.20
2019-05-06T17:51:33.782Z,7.40
2019-05-06T17:54:03.611Z,6.03
2019-05-06T17:56:32.012Z,5.90
2019-05-06T17:59:00.437Z,6.27
2019-05-06T18:01:33.060Z,7.10
2019-05-06T18:04:02.238Z,6.33
2019-05-06T18:06:33.014Z,5.90
2019-05-06T18:09:02.522Z,5.97
2019-05-06T18:11:33.216Z,6.33
2019-05-06T18:14:03.772Z,6.97
2019-05-06T18:16:33.496Z,6.43
2019-05-06T18:19:03.141Z,6.53
2019-05-06T18:21:31.715Z,6.73
2019-05-06T18:24:00.109Z,7.57
2019-05-06T18:26:28.513Z,5.80
2019-05-06T18:28:58.437Z,5.67
2019-05-06T18:31:27.016Z,6.87
2019-05-06T18:33:55.470Z,5.73
2019-05-06T18:36:23.888Z,6.30
2019-05-06T18:38:52.691Z,6.20
2019-05-06T18:41:23.415Z,6.40
2019-05-06T18:43:53.316Z,6.23
2019-05-06T18:46:21.435Z,5.73
2019-05-06T18:48:52.242Z,5.97
2019-05-06T18:51:22.120Z,5.50
2019-05-06T18:53:52.192Z,7.50
2019-05-06T18:56:22.210Z,7.60
2019-05-06T18:58:52.697Z,7.77
2019-05-06T19:01:22.981Z,7.53
2019-05-06T19:03:55.064Z,6.20
2019-05-06T19:06:23.463Z,5.27
2019-05-06T19:09:02.656Z,5.67
2019-05-06T19:11:32.511Z,5.20
2019-05-06T19:14:02.118Z,5.83
2019-05-06T19:16:45.582Z,4.90
2019-05-06T19:19:03.710Z,5.10
2019-05-06T19:21:32.025Z,5.33
2019-05-06T19:24:02.791Z,5.73
2019-05-06T19:26:32.667Z,4.87
2019-05-06T19:29:04.356Z,5.00
2019-05-06T19:31:32.257Z,5.53
2019-05-06T19:34:03.131Z,5.40
2019-05-06T19:36:34.183Z,6.03
2019-05-06T19:39:02.297Z,7.17
2019-05-06T19:41:33.198Z,13.87
2019-05-06T19:44:02.087Z,6.33
2019-05-06T19:46:32.340Z,5.90
2019-05-06T19:49:01.843Z,6.20
2019-05-06T19:51:30.498Z,6.20
2019-05-06T19:53:58.900Z,6.60
2019-05-06T19:56:27.306Z,6.87
2019-05-06T19:58:55.689Z,7.00
2019-05-06T20:01:24.103Z,6.40
2019-05-06T20:03:52.739Z,5.43
2019-05-06T20:06:22.831Z,7.60
2019-05-06T20:08:52.965Z,7.17
2019-05-06T20:11:28.774Z,8.90
2019-05-06T20:13:57.189Z,8.33
2019-05-06T20:16:25.617Z,7.93
2019-05-06T20:18:53.990Z,7.67
2019-05-06T20:21:23.118Z,6.50
2019-05-06T20:23:52.590Z,6.30
2019-05-06T20:26:21.960Z,6.43
2019-05-06T20:28:52.448Z,5.73
2019-05-06T20:31:22.465Z,6.40
2019-05-06T20:33:52.768Z,6.20
2019-05-06T20:36:22.632Z,6.33
2019-05-06T20:38:51.152Z,7.20
2019-05-06T20:41:19.561Z,6.90
2019-05-06T20:43:47.970Z,6.97
2019-05-06T20:46:16.346Z,6.77
2019-05-06T20:48:44.738Z,7.00
2019-05-06T20:51:13.129Z,6.00
2019-05-06T20:53:43.214Z,6.80
2019-05-06T20:56:12.376Z,6.37
2019-05-06T20:58:41.987Z,6.17
2019-05-06T21:01:10.578Z,5.83
2019-05-06T21:03:38.970Z,8.03
2019-05-06T21:06:07.365Z,7.43
2019-05-06T21:08:35.758Z,6.47
2019-05-06T21:11:04.266Z,6.90
2019-05-06T21:13:35.432Z,7.70
2019-05-06T21:16:02.779Z,7.17
2019-05-06T21:18:32.514Z,7.43
2019-05-06T21:21:02.111Z,7.90
2019-05-06T21:23:32.087Z,7.00
2019-05-06T21:26:03.086Z,7.17
2019-05-06T21:28:30.817Z,7.20
2019-05-06T21:30:59.237Z,6.93
2019-05-06T21:33:27.626Z,7.30
2019-05-06T21:35:56.046Z,7.20
2019-05-06T21:38:24.452Z,7.50
2019-05-06T21:40:52.929Z,7.77
2019-05-06T21:43:22.663Z,9.10
2019-05-06T21:45:51.284Z,9.20
2019-05-06T21:48:22.087Z,10.00
2019-05-06T21:50:52.049Z,9.80
2019-05-06T21:53:19.932Z,9.50
2019-05-06T21:55:48.351Z,9.37
2019-05-06T21:58:16.740Z,9.77
2019-05-06T22:00:46.858Z,10.07
2019-05-06T22:03:15.421Z,10.90
2019-05-06T22:05:43.831Z,9.40
2019-05-06T22:08:12.854Z,10.63
2019-05-06T22:10:42.185Z,10.10
2019-05-06T22:13:12.577Z,9.80
2019-05-06T22:15:42.163Z,10.60
2019-05-06T22:18:12.538Z,11.90
2019-05-06T22:20:58.731Z,11.10
2019-05-06T22:23:28.778Z,11.00
2019-05-06T22:26:08.536Z,10.27
2019-05-06T22:28:27.305Z,11.63
2019-05-06T22:30:55.698Z,11.17
2019-05-06T22:33:24.106Z,12.27
2019-05-06T22:35:54.896Z,10.70
2019-05-06T22:38:22.720Z,12.73
2019-05-06T22:40:52.944Z,12.63
2019-05-06T22:43:21.895Z,12.00
2019-05-06T22:45:50.418Z,12.30
2019-05-06T22:48:18.822Z,10.93
2019-05-06T22:50:47.228Z,11.43
2019-05-06T22:53:15.637Z,11.57
2019-05-06T22:55:44.039Z,10.97
2019-05-06T22:58:12.446Z,12.17
2019-05-06T23:00:42.620Z,10.80
2019-05-06T23:03:18.335Z,10.27
2019-05-06T23:05:46.730Z,11.07
2019-05-06T23:08:15.143Z,11.57
2019-05-06T23:10:43.613Z,10.20
2019-05-06T23:13:12.510Z,10.83
2019-05-06T23:15:42.128Z,11.67
2019-05-06T23:18:10.649Z,11.70
2019-05-06T23:20:39.055Z,12.23
2019-05-06T23:23:07.466Z,12.07
2019-05-06T23:25:35.861Z,11.60
2019-05-06T23:28:04.534Z,10.87
2019-05-06T23:30:33.543Z,11.80
2019-05-06T23:33:02.086Z,10.57
2019-05-06T23:35:30.483Z,12.30
2019-05-06T23:38:35.238Z,11.80
2019-05-06T23:41:42.188Z,12.30
2019-05-06T23:44:46.714Z,11.83
2019-05-06T23:47:53.093Z,13.77
2019-05-06T23:50:59.262Z,11.20
2019-05-06T23:54:04.275Z,13.63
2019-05-06T23:56:43.296Z,12.90
2019-05-06T23:59:14.745Z,13.00
